Time;durP1;ratioP1;P1;durP2;ratioP2;P2;SDS_P1;SDS_P2;PMS_P1;PMS_P2;Temp;Humidity;BMP_temperature;BMP_pressure;BME280_temperature;BME280_humidity;BME280_pressure;Samples;Min_cycle;Max_cycle;Signal;HPM_P1;HPM_P2
2022/09/01 00:02:07;;;;;;;5.15;2.75;;;19.80;99.90;;;;;;4994869;28;20031;-51
2022/09/01 00:04:37;;;;;;;5.82;2.33;;;19.90;99.90;;;;;;4994920;28;20088;-52
2022/09/01 00:07:07;;;;;;;4.85;2.60;;;19.80;99.90;;;;;;4994656;28;20038;-53
2022/09/01 00:09:33;;;;;;;6.22;2.40;;;19.80;99.90;;;;;;4994973;28;20022;-52
2022/09/01 00:12:08;;;;;;;5.30;2.58;;;19.80;99.90;;;;;;4994574;28;20034;-52
2022/09/01 00:14:38;;;;;;;3.80;2.40;;;19.70;99.90;;;;;;4994724;28;20073;-52
2022/09/01 00:17:06;;;;;;;4.85;2.30;;;19.70;99.90;;;;;;4994247;28;20491;-52
2022/09/01 00:19:32;;;;;;;4.28;2.22;;;19.60;99.90;;;;;;4994229;28;20045;-52
2022/09/01 00:22:00;;;;;;;3.10;2.45;;;19.60;99.90;;;;;;4993372;28;20022;-51
2022/09/01 00:24:26;;;;;;;5.30;2.42;;;19.60;99.90;;;;;;4993738;28;20045;-51
2022/09/01 00:26:53;;;;;;;5.43;2.30;;;19.70;99.90;;;;;;4994322;28;20049;-52
2022/09/01 00:29:19;;;;;;;5.50;2.40;;;19.70;99.90;;;;;;4994567;28;20050;-52
2022/09/01 00:31:45;;;;;;;5.80;2.20;;;19.60;99.90;;;;;;4993855;28;20022;-52
2022/09/01 00:34:10;;;;;;;5.57;2.25;;;19.60;99.90;;;;;;4993921;28;20030;-52
2022/09/01 00:36:36;;;;;;;3.70;2.53;;;19.50;99.90;;;;;;4993896;28;20027;-52
2022/09/01 00:39:04;;;;;;;7.10;2.55;;;19.50;99.90;;;;;;4994193;28;20077;-52
2022/09/01 00:41:32;;;;;;;6.03;2.42;;;19.60;99.90;;;;;;4994394;28;20026;-51
2022/09/01 00:44:01;;;;;;;3.80;2.30;;;19.50;99.90;;;;;;4993723;28;20042;-51
2022/09/01 00:46:33;;;;;;;9.45;2.83;;;19.50;99.90;;;;;;4993818;28;20033;-51
2022/09/01 00:49:09;;;;;;;5.53;2.53;;;19.50;99.90;;;;;;4993770;28;20037;-52
2022/09/01 00:51:38;;;;;;;5.22;2.55;;;19.50;99.90;;;;;;4993856;28;20037;-53
2022/09/01 00:54:07;;;;;;;6.80;2.17;;;19.50;99.90;;;;;;4993914;28;20023;-52
2022/09/01 00:56:36;;;;;;;5.70;1.90;;;19.70;99.90;;;;;;4993575;28;20069;-51
2022/09/01 00:59:05;;;;;;;2.28;1.92;;;19.60;99.90;;;;;;4993974;28;20428;-52
2022/09/01 01:01:35;;;;;;;6.22;2.40;;;19.50;99.90;;;;;;4993856;28;20535;-52
2022/09/01 01:04:02;;;;;;;5.35;2.40;;;19.40;99.90;;;;;;4993344;28;20499;-52
2022/09/01 01:06:31;;;;;;;4.85;2.20;;;19.30;99.90;;;;;;4993594;28;20033;-52
2022/09/01 01:08:59;;;;;;;4.00;1.92;;;19.40;99.90;;;;;;4993747;28;20113;-52
2022/09/01 01:11:28;;;;;;;8.27;2.30;;;19.30;99.90;;;;;;4993641;28;20030;-52
2022/09/01 01:14:14;;;;;;;3.92;1.85;;;19.30;99.90;;;;;;4991692;28;20033;-52
2022/09/01 01:16:49;;;;;;;4.18;2.30;;;19.30;99.90;;;;;;4993656;28;20030;-52
2022/09/01 01:25:11;;;;;;;9.15;2.47;;;19.20;99.90;;;;;;4993671;28;20411;-51
2022/09/01 01:27:41;;;;;;;3.40;1.90;;;19.20;99.90;;;;;;4993157;28;20026;-52
2022/09/01 01:30:09;;;;;;;4.15;1.67;;;19.10;99.90;;;;;;4993337;28;20037;-52
2022/09/01 01:32:36;;;;;;;5.20;1.92;;;19.10;99.90;;;;;;4993145;28;20047;-50
2022/09/01 01:35:04;;;;;;;7.43;2.28;;;19.20;99.90;;;;;;4992804;28;20073;-51
2022/09/01 01:37:34;;;;;;;6.10;2.33;;;19.20;99.90;;;;;;4992586;28;20034;-52
2022/09/01 01:40:00;;;;;;;2.78;2.08;;;19.20;99.90;;;;;;4993291;28;20054;-52
2022/09/01 01:42:27;;;;;;;2.33;1.77;;;19.10;99.90;;;;;;4993049;28;20056;-51
2022/09/01 01:44:53;;;;;;;3.00;1.65;;;19.10;99.90;;;;;;4993357;28;20069;-52
2022/09/01 01:47:19;;;;;;;7.88;1.85;;;19.10;99.90;;;;;;4993910;28;20050;-51
2022/09/01 01:49:44;;;;;;;3.40;1.80;;;19.00;99.90;;;;;;4993189;28;20251;-51
2022/09/01 01:52:15;;;;;;;2.60;1.48;;;19.00;99.90;;;;;;4992698;28;20031;-51
2022/09/01 01:54:41;;;;;;;5.07;2.03;;;18.90;99.90;;;;;;4993368;28;20034;-52
2022/09/01 01:57:07;;;;;;;4.47;1.75;;;18.90;99.90;;;;;;4992928;28;20089;-51
2022/09/01 01:59:33;;;;;;;5.85;1.70;;;18.90;99.90;;;;;;4992843;28;20026;-52
2022/09/01 02:02:02;;;;;;;4.63;1.60;;;18.90;99.90;;;;;;4993669;28;20077;-51
2022/09/01 02:04:32;;;;;;;4.80;2.00;;;18.90;99.90;;;;;;4993628;28;20030;-51
2022/09/01 02:06:58;;;;;;;2.38;1.60;;;19.00;99.90;;;;;;4993518;28;20026;-52
2022/09/01 02:09:24;;;;;;;4.82;1.73;;;18.90;99.90;;;;;;4993264;28;20390;-52
2022/09/01 02:12:08;;;;;;;4.90;1.83;;;18.80;99.90;;;;;;4993206;28;20019;-52
2022/09/01 02:14:34;;;;;;;6.40;1.70;;;18.70;99.90;;;;;;4992246;28;20561;-52
2022/09/01 02:17:06;;;;;;;3.47;1.83;;;18.70;99.90;;;;;;4992373;28;20022;-53
2022/09/01 02:19:35;;;;;;;5.20;1.55;;;18.70;99.90;;;;;;4993556;28;20379;-52
2022/09/01 02:22:01;;;;;;;3.05;1.35;;;18.70;99.90;;;;;;4993266;28;20094;-52
2022/09/01 02:24:30;;;;;;;3.70;1.65;;;18.60;99.90;;;;;;4992588;28;20570;-52
2022/09/01 02:26:59;;;;;;;1.63;1.40;;;18.60;99.90;;;;;;4991362;28;20591;-52
2022/09/01 02:29:28;;;;;;;6.78;2.03;;;18.80;99.90;;;;;;4992395;28;20026;-52
2022/09/01 02:31:55;;;;;;;3.13;1.70;;;18.80;99.90;;;;;;4992361;28;20116;-51
2022/09/01 02:34:23;;;;;;;5.40;1.65;;;18.80;99.90;;;;;;4992592;28;20109;-52
2022/09/01 02:36:52;;;;;;;7.18;1.63;;;18.70;99.90;;;;;;4992833;28;20040;-52
2022/09/01 02:39:23;;;;;;;3.60;1.80;;;18.70;99.90;;;;;;4991570;28;20037;-51
2022/09/01 02:41:49;;;;;;;3.92;1.73;;;18.60;99.90;;;;;;4992382;28;20054;-52
2022/09/01 02:44:18;;;;;;;2.28;1.70;;;18.70;99.90;;;;;;4992694;28;20480;-51
2022/09/01 02:46:45;;;;;;;4.32;1.83;;;18.70;99.90;;;;;;4992494;28;20027;-52
2022/09/01 02:49:28;;;;;;;3.45;1.58;;;18.80;99.90;;;;;;4996009;28;20472;-52
2022/09/01 02:51:56;;;;;;;;;;;18.80;99.90;;;;;;4996908;28;20057;-52
2022/09/01 02:54:24;;;;;;;4.05;1.70;;;18.80;99.90;;;;;;4995692;28;19909;-52
2022/09/01 02:56:53;;;;;;;7.18;1.83;;;18.80;99.90;;;;;;4995697;28;20511;-51
2022/09/01 02:59:20;;;;;;;4.15;1.77;;;18.80;99.90;;;;;;4996239;28;20037;-52
2022/09/01 03:01:47;;;;;;;5.93;1.80;;;18.80;99.90;;;;;;4995415;28;20033;-51
2022/09/01 03:04:13;;;;;;;6.25;1.98;;;18.90;99.90;;;;;;4996248;28;20030;-51
2022/09/01 03:06:39;;;;;;;3.22;1.52;;;18.90;99.90;;;;;;4996115;28;20029;-51
2022/09/01 03:09:13;;;;;;;3.97;1.80;;;18.90;99.90;;;;;;4995584;28;20055;-51
2022/09/01 03:11:41;;;;;;;3.35;2.03;;;19.00;99.90;;;;;;4995451;28;20019;-51
2022/09/01 03:14:07;;;;;;;7.82;2.25;;;18.80;99.90;;;;;;4995515;28;20031;-51
2022/09/01 03:16:33;;;;;;;5.30;2.05;;;18.80;99.90;;;;;;4995661;28;20041;-52
2022/09/01 03:19:02;;;;;;;4.18;2.03;;;18.80;99.90;;;;;;4995520;28;20450;-52
2022/09/01 03:21:30;;;;;;;6.03;2.03;;;18.70;99.90;;;;;;4995508;28;20391;-52
2022/09/01 03:23:56;;;;;;;5.20;1.98;;;18.80;99.90;;;;;;4994271;28;20042;-52
2022/09/01 03:26:23;;;;;;;4.05;1.98;;;18.80;99.90;;;;;;4995726;28;20114;-53
2022/09/01 03:28:51;;;;;;;5.28;2.00;;;18.80;99.90;;;;;;4995765;28;20117;-52
2022/09/01 03:31:18;;;;;;;12.40;2.40;;;18.90;99.90;;;;;;4994591;28;20049;-53
2022/09/01 03:33:44;;;;;;;5.68;2.20;;;18.90;99.90;;;;;;4995306;28;20438;-52
2022/09/01 03:36:17;;;;;;;4.47;2.22;;;18.80;99.90;;;;;;4995656;28;20023;-52
2022/09/01 03:38:47;;;;;;;5.30;2.25;;;18.90;99.90;;;;;;4995459;28;20034;-52
2022/09/01 03:41:16;;;;;;;5.43;2.58;;;18.90;99.90;;;;;;4994378;28;20026;-52
2022/09/01 03:43:43;;;;;;;9.55;2.40;;;18.80;99.90;;;;;;4995239;28;20042;-52
2022/09/01 03:46:11;;;;;;;3.75;2.00;;;18.60;99.90;;;;;;4994540;28;20022;-52
2022/09/01 03:48:37;;;;;;;4.95;2.28;;;18.70;99.90;;;;;;4994113;28;20025;-52
2022/09/01 03:51:03;;;;;;;4.25;2.53;;;18.70;99.90;;;;;;4994039;28;20496;-51
2022/09/01 03:53:35;;;;;;;6.25;2.50;;;18.50;99.90;;;;;;4994650;28;20062;-51
2022/09/01 03:56:02;;;;;;;8.47;2.60;;;18.30;99.90;;;;;;4994205;28;20471;-52
2022/09/01 03:58:29;;;;;;;5.47;2.35;;;18.20;99.90;;;;;;4993465;28;20089;-52
2022/09/01 04:00:57;;;;;;;6.03;2.42;;;18.30;99.90;;;;;;4993575;28;20081;-52
2022/09/01 04:03:26;;;;;;;6.13;2.38;;;18.30;99.90;;;;;;4994229;28;20042;-52
2022/09/01 04:05:52;;;;;;;7.70;2.88;;;18.30;99.90;;;;;;4994436;28;20027;-52
2022/09/01 04:08:21;;;;;;;6.88;2.67;;;18.10;99.90;;;;;;4994497;28;20030;-52
2022/09/01 04:10:52;;;;;;;5.22;2.83;;;18.20;99.90;;;;;;4994498;28;20025;-52
2022/09/01 04:13:29;;;;;;;7.07;2.50;;;18.00;99.90;;;;;;4994417;28;20037;-52
2022/09/01 04:15:55;;;;;;;13.88;2.67;;;17.90;99.90;;;;;;4994888;28;20030;-52
2022/09/01 04:18:22;;;;;;;8.13;2.60;;;17.80;99.90;;;;;;4995260;28;20096;-51
2022/09/01 04:20:53;;;;;;;6.43;2.38;;;17.70;99.90;;;;;;4994668;28;20030;-52
2022/09/01 04:23:25;;;;;;;8.02;2.72;;;17.70;99.90;;;;;;4994041;28;20109;-52
2022/09/01 04:25:54;;;;;;;10.05;2.65;;;17.70;99.90;;;;;;4994660;28;20487;-52
2022/09/01 04:28:23;;;;;;;7.32;2.90;;;17.70;99.90;;;;;;4994924;28;20506;-52
2022/09/01 04:30:55;;;;;;;9.30;3.08;;;17.70;99.90;;;;;;4994398;28;20036;-52
2022/09/01 04:33:26;;;;;;;9.05;2.97;;;17.80;99.90;;;;;;4994435;28;20022;-52
2022/09/01 04:35:55;;;;;;;4.72;2.35;;;17.70;99.90;;;;;;4994362;28;20018;-52
2022/09/01 04:38:23;;;;;;;6.72;2.85;;;17.60;99.90;;;;;;4994497;28;20038;-52
2022/09/01 04:40:50;;;;;;;8.27;2.70;;;17.50;99.90;;;;;;4993680;28;20069;-52
2022/09/01 04:43:16;;;;;;;7.80;2.60;;;17.50;99.90;;;;;;4993588;28;20041;-52
2022/09/01 04:45:44;;;;;;;7.05;2.70;;;17.60;99.90;;;;;;4993419;28;20023;-52
2022/09/01 04:48:10;;;;;;;11.48;2.60;;;17.80;99.90;;;;;;4993249;28;20043;-51
2022/09/01 04:50:36;;;;;;;6.57;2.40;;;17.70;99.90;;;;;;4992895;28;20033;-52
2022/09/01 04:53:05;;;;;;;9.48;2.58;;;17.70;99.90;;;;;;4993422;28;20042;-51
2022/09/01 04:55:31;;;;;;;7.97;2.70;;;17.50;99.90;;;;;;4992788;28;20034;-51
2022/09/01 04:57:59;;;;;;;8.05;2.47;;;17.30;99.90;;;;;;4994093;28;20042;-51
2022/09/01 05:00:30;;;;;;;6.80;2.40;;;17.30;99.90;;;;;;4994058;28;20031;-51
2022/09/01 05:03:04;;;;;;;8.05;2.72;;;17.10;99.90;;;;;;4993654;28;20065;-51
2022/09/01 05:05:42;;;;;;;5.93;2.20;;;17.10;99.90;;;;;;4993025;28;20081;-50
2022/09/01 05:08:13;;;;;;;6.78;2.72;;;17.00;99.90;;;;;;4993597;28;20081;-52
2022/09/01 05:10:45;;;;;;;6.28;2.58;;;17.00;99.90;;;;;;4993219;28;20023;-53
2022/09/01 05:13:16;;;;;;;5.57;2.72;;;17.00;99.90;;;;;;4992192;28;20097;-51
2022/09/01 05:15:46;;;;;;;15.57;4.03;;;17.00;99.90;;;;;;4987934;28;20061;-52
2022/09/01 05:18:22;;;;;;;7.60;3.30;;;17.00;99.90;;;;;;4989247;28;20018;-51
2022/09/01 05:20:49;;;;;;;6.57;2.40;;;17.20;99.90;;;;;;4991809;28;20053;-51
2022/09/01 05:23:18;;;;;;;3.53;2.50;;;17.10;99.90;;;;;;4982262;28;20281;-51
2022/09/01 05:25:45;;;;;;;5.90;2.50;;;17.00;99.90;;;;;;4981806;28;20391;-51
2022/09/01 05:28:11;;;;;;;8.05;2.50;;;17.00;99.90;;;;;;4980076;28;20037;-51
2022/09/01 05:30:39;;;;;;;6.22;2.63;;;17.10;99.90;;;;;;4983767;28;20033;-51
2022/09/01 05:33:10;;;;;;;6.90;2.70;;;17.20;99.90;;;;;;4983755;28;20027;-51
2022/09/01 05:35:43;;;;;;;13.55;2.95;;;17.10;99.90;;;;;;4983002;28;20026;-51
2022/09/01 05:38:14;;;;;;;7.78;2.75;;;17.10;99.90;;;;;;4985811;28;20034;-51
2022/09/01 05:40:42;;;;;;;7.13;2.90;;;17.20;99.90;;;;;;4981204;28;20024;-51
2022/09/01 05:43:12;;;;;;;9.20;3.13;;;17.20;99.90;;;;;;4980182;28;20088;-51
2022/09/01 05:45:42;;;;;;;8.85;2.80;;;17.30;99.90;;;;;;4983703;28;20028;-51
2022/09/01 05:48:12;;;;;;;12.10;3.33;;;17.10;99.90;;;;;;4982020;28;20030;-51
2022/09/01 05:50:44;;;;;;;8.13;3.20;;;17.00;99.90;;;;;;4982083;28;20062;-51
2022/09/01 05:53:16;;;;;;;13.60;3.08;;;17.10;99.90;;;;;;4983282;28;20462;-52
2022/09/01 05:55:43;;;;;;;15.80;3.73;;;17.20;99.90;;;;;;4986880;28;20055;-51
2022/09/01 05:58:12;;;;;;;8.85;2.90;;;17.20;99.90;;;;;;4987776;28;20289;-52
2022/09/01 06:00:40;;;;;;;8.32;3.30;;;17.30;99.90;;;;;;4983363;28;20398;-52
2022/09/01 06:03:08;;;;;;;5.93;3.17;;;17.20;99.90;;;;;;4983575;28;20688;-51
2022/09/01 06:05:38;;;;;;;6.10;2.97;;;17.20;99.90;;;;;;4979932;28;20027;-51
2022/09/01 06:08:06;;;;;;;12.05;3.53;;;17.10;99.90;;;;;;4983523;28;20053;-51
2022/09/01 06:10:38;;;;;;;23.75;4.82;;;17.10;99.90;;;;;;4982590;28;20033;-52
2022/09/01 06:13:08;;;;;;;9.68;4.32;;;17.10;99.90;;;;;;4975616;28;20038;-51
2022/09/01 06:15:38;;;;;;;8.65;3.88;;;17.20;99.90;;;;;;4983091;28;20030;-51
2022/09/01 06:18:10;;;;;;;21.65;4.70;;;17.40;99.90;;;;;;4974912;28;20030;-49
2022/09/01 06:20:41;;;;;;;9.57;3.80;;;17.50;99.90;;;;;;4975921;28;20337;-51
2022/09/01 06:23:07;;;;;;;14.20;4.60;;;17.50;99.90;;;;;;4973521;28;20843;-52
2022/09/01 06:25:36;;;;;;;12.43;4.20;;;17.60;99.90;;;;;;4978421;28;20034;-51
2022/09/01 06:28:03;;;;;;;19.10;4.25;;;17.70;99.90;;;;;;4981710;28;20487;-52
2022/09/01 06:30:29;;;;;;;22.20;4.53;;;17.90;99.90;;;;;;4974614;28;21562;-51
2022/09/01 06:32:55;;;;;;;14.50;4.53;;;18.10;99.90;;;;;;4978765;28;20034;-51
2022/09/01 06:35:28;;;;;;;13.32;4.47;;;18.00;99.90;;;;;;4984617;28;20455;-50
2022/09/01 06:37:57;;;;;;;12.43;4.15;;;18.00;99.90;;;;;;4973828;28;20452;-51
2022/09/01 06:40:24;;;;;;;12.82;4.72;;;18.10;99.90;;;;;;4979739;28;20030;-50
2022/09/01 06:42:51;;;;;;;12.90;5.28;;;18.10;99.90;;;;;;4975195;28;20044;-52
2022/09/01 06:45:23;;;;;;;12.82;6.00;;;18.00;99.90;;;;;;4977299;28;20045;-51
2022/09/01 06:47:51;;;;;;;8.90;4.63;;;18.00;99.90;;;;;;4985201;28;20479;-51
2022/09/01 06:50:23;;;;;;;7.05;4.63;;;18.00;99.90;;;;;;4988045;28;20027;-50
2022/09/01 06:53:00;;;;;;;11.40;4.57;;;18.10;99.90;;;;;;4986749;28;20077;-51
2022/09/01 06:55:30;;;;;;;11.48;5.10;;;18.20;99.90;;;;;;4987829;28;20045;-52
2022/09/01 06:57:57;;;;;;;15.13;4.95;;;18.30;99.90;;;;;;4983965;28;20550;-49
2022/09/01 07:00:25;;;;;;;11.25;5.05;;;18.30;99.90;;;;;;4981212;28;20070;-52
2022/09/01 07:02:56;;;;;;;9.27;5.68;;;18.50;99.90;;;;;;4981654;28;20142;-50
2022/09/01 07:05:23;;;;;;;12.95;4.97;;;18.50;99.90;;;;;;4978564;28;20030;-50
2022/09/01 07:07:54;;;;;;;8.95;5.03;;;18.80;99.90;;;;;;4972755;28;20345;-51
2022/09/01 07:10:25;;;;;;;8.82;5.53;;;18.80;99.90;;;;;;4979448;28;20018;-51
2022/09/01 07:12:54;;;;;;;9.75;5.35;;;18.80;99.90;;;;;;4979661;28;20367;-51
2022/09/01 07:15:23;;;;;;;15.32;5.70;;;19.00;99.90;;;;;;4980204;28;20113;-51
2022/09/01 07:17:52;;;;;;;11.30;5.80;;;19.20;99.90;;;;;;4981704;28;20153;-52
2022/09/01 07:20:24;;;;;;;9.93;5.57;;;19.20;99.90;;;;;;4983230;28;20124;-52
2022/09/01 07:22:51;;;;;;;8.30;5.37;;;19.50;99.90;;;;;;4979396;28;20042;-50
2022/09/01 07:25:19;;;;;;;11.18;5.22;;;19.50;99.90;;;;;;4979626;28;20294;-50
2022/09/01 07:27:49;;;;;;;9.57;5.32;;;19.60;99.90;;;;;;4977672;28;20323;-50
2022/09/01 07:30:20;;;;;;;6.93;4.97;;;20.00;99.90;;;;;;4976075;28;20139;-50
2022/09/01 07:32:47;;;;;;;11.23;5.10;;;21.00;99.90;;;;;;4969179;28;20058;-52
2022/09/01 07:35:14;;;;;;;12.27;5.28;;;22.00;99.90;;;;;;4969173;28;20030;-50
2022/09/01 07:37:40;;;;;;;11.65;4.88;;;23.20;99.90;;;;;;4974313;28;20154;-50
2022/09/01 07:40:09;;;;;;;20.05;5.15;;;24.10;98.90;;;;;;4975883;28;20042;-54
2022/09/01 07:42:37;;;;;;;8.00;4.60;;;25.10;97.60;;;;;;4974678;28;20055;-53
2022/09/01 07:45:07;;;;;;;14.05;5.03;;;25.40;95.40;;;;;;4970707;28;20022;-53
2022/09/01 07:47:35;;;;;;;13.05;4.80;;;25.90;93.90;;;;;;4964718;28;20105;-53
2022/09/01 07:50:07;;;;;;;11.68;4.40;;;26.30;92.60;;;;;;4972345;28;20050;-54
2022/09/01 07:52:35;;;;;;;10.60;4.50;;;26.40;92.20;;;;;;4965340;28;20542;-53
2022/09/01 07:55:02;;;;;;;14.68;4.82;;;27.60;89.60;;;;;;4972281;28;20389;-52
2022/09/01 07:57:28;;;;;;;6.60;4.30;;;27.50;89.10;;;;;;4972062;28;20054;-53
2022/09/01 07:59:54;;;;;;;9.82;4.55;;;27.70;88.00;;;;;;4969232;28;20043;-53
2022/09/01 08:02:20;;;;;;;7.35;5.07;;;27.70;86.90;;;;;;4974127;28;20124;-52
2022/09/01 08:04:47;;;;;;;9.32;4.53;;;27.90;86.20;;;;;;4974322;28;20045;-53
2022/09/01 08:07:13;;;;;;;11.32;4.75;;;27.80;85.70;;;;;;4971751;28;20057;-53
2022/09/01 08:09:39;;;;;;;11.32;4.53;;;28.00;85.50;;;;;;4970593;28;21169;-53
2022/09/01 08:12:06;;;;;;;12.48;4.82;;;28.20;83.60;;;;;;4969711;28;20085;-53
2022/09/01 08:14:32;;;;;;;10.10;4.40;;;28.10;84.10;;;;;;4967521;28;20403;-54
2022/09/01 08:16:57;;;;;;;14.57;5.07;;;28.40;83.50;;;;;;4965004;28;20039;-53
2022/09/01 08:19:23;;;;;;;17.25;4.55;;;28.60;83.20;;;;;;4970455;28;20066;-53
2022/09/01 08:21:49;;;;;;;12.43;4.20;;;28.60;83.70;;;;;;4973737;28;20125;-54
2022/09/01 08:24:14;;;;;;;16.05;5.25;;;29.40;81.10;;;;;;4973925;28;20909;-53
2022/09/01 08:26:40;;;;;;;7.03;4.43;;;29.50;80.20;;;;;;4975780;28;20584;-54
2022/09/01 08:29:06;;;;;;;17.45;4.88;;;29.30;79.80;;;;;;4962142;28;20034;-53
2022/09/01 08:31:32;;;;;;;9.65;4.20;;;29.50;79.10;;;;;;4967620;28;20113;-53
2022/09/01 08:33:58;;;;;;;8.75;4.15;;;29.50;79.30;;;;;;4972779;28;20040;-53
2022/09/01 08:36:24;;;;;;;8.65;3.78;;;29.70;78.60;;;;;;4965949;28;20085;-53
2022/09/01 08:38:51;;;;;;;15.80;4.18;;;30.00;78.00;;;;;;4974584;28;20124;-54
2022/09/01 08:41:48;;;;;;;8.35;4.03;;;30.40;75.40;;;;;;4966875;28;20543;-53
2022/09/01 08:44:17;;;;;;;11.85;4.20;;;30.20;75.60;;;;;;4932196;28;20941;-52
2022/09/01 08:46:43;;;;;;;13.05;4.28;;;29.90;75.20;;;;;;4967925;28;20030;-53
2022/09/01 08:49:22;;;;;;;11.38;4.15;;;29.60;77.30;;;;;;4970147;28;20041;-53
2022/09/01 08:52:01;;;;;;;8.07;3.80;;;29.50;77.50;;;;;;4969186;28;20038;-53
2022/09/01 08:54:39;;;;;;;9.10;3.75;;;29.80;76.40;;;;;;4972309;28;20069;-53
2022/09/01 08:57:12;;;;;;;10.77;4.15;;;30.00;76.00;;;;;;4965334;28;20670;-53
2022/09/01 08:59:38;;;;;;;7.75;3.72;;;30.20;75.30;;;;;;4968262;28;21629;-53
2022/09/01 09:02:12;;;;;;;9.93;3.53;;;30.20;76.00;;;;;;4973397;28;20031;-53
2022/09/01 09:04:48;;;;;;;10.52;3.85;;;29.70;76.00;;;;;;4972295;28;20430;-54
2022/09/01 09:07:42;;;;;;;9.70;3.80;;;29.50;78.00;;;;;;4968794;28;20030;-54
2022/09/01 09:10:19;;;;;;;8.07;3.60;;;30.20;75.80;;;;;;4967788;28;20069;-52
2022/09/01 09:12:50;;;;;;;10.95;3.78;;;30.50;74.80;;;;;;4973926;28;20034;-53
2022/09/01 09:15:46;;;;;;;8.98;3.33;;;30.20;74.60;;;;;;4974694;28;20050;-53
2022/09/01 09:18:39;;;;;;;6.10;3.00;;;29.80;75.90;;;;;;4967196;28;20641;-53
2022/09/01 09:21:17;;;;;;;10.63;3.20;;;30.10;75.50;;;;;;4967767;28;20037;-53
2022/09/01 09:23:47;;;;;;;8.13;2.70;;;30.40;74.30;;;;;;4972493;28;20628;-53
2022/09/01 09:26:12;;;;;;;7.53;3.20;;;30.40;75.00;;;;;;4971670;28;20431;-54
2022/09/01 09:28:39;;;;;;;10.20;2.70;;;30.60;74.80;;;;;;4970977;28;20027;-54
2022/09/01 09:31:24;;;;;;;7.20;2.50;;;30.80;74.20;;;;;;4971273;28;20383;-54
2022/09/01 09:33:50;;;;;;;8.20;2.67;;;31.30;72.40;;;;;;4967591;28;20423;-54
2022/09/01 09:36:28;;;;;;;5.15;2.90;;;31.30;71.10;;;;;;4971182;28;20072;-54
2022/09/01 09:39:05;;;;;;;7.40;2.95;;;31.40;71.40;;;;;;4971537;28;20042;-54
2022/09/01 09:41:31;;;;;;;6.85;2.67;;;31.70;70.70;;;;;;4976190;28;20026;-54
2022/09/01 09:44:02;;;;;;;7.30;2.75;;;31.40;71.50;;;;;;4974038;28;20076;-54
2022/09/01 09:46:31;;;;;;;;;;;31.80;71.00;;;;;;4972726;28;20019;-53
2022/09/01 09:49:09;;;;;;;5.95;2.90;;;32.10;69.70;;;;;;4969244;28;19924;-53
2022/09/01 09:51:36;;;;;;;6.10;2.97;;;31.20;71.00;;;;;;4964020;28;20034;-54
2022/09/01 09:54:21;;;;;;;6.55;2.53;;;30.70;72.00;;;;;;4969301;28;20038;-53
2022/09/01 09:56:48;;;;;;;7.13;2.47;;;30.60;71.90;;;;;;4970394;28;20534;-54
2022/09/01 09:59:32;;;;;;;5.75;2.50;;;30.50;72.70;;;;;;4966077;28;20543;-53
2022/09/01 10:02:18;;;;;;;6.07;2.25;;;30.60;72.30;;;;;;4974305;28;20030;-53
2022/09/01 10:04:44;;;;;;;7.00;2.42;;;31.00;71.00;;;;;;4974201;28;20044;-54
2022/09/01 10:07:31;;;;;;;4.75;2.17;;;30.90;71.30;;;;;;4971666;28;20035;-53
2022/09/01 10:10:00;;;;;;;8.30;2.30;;;31.10;70.20;;;;;;4976139;28;20097;-53
2022/09/01 10:12:28;;;;;;;6.78;2.20;;;31.20;70.20;;;;;;4972410;28;20030;-53
2022/09/01 10:14:59;;;;;;;8.23;2.33;;;30.10;71.40;;;;;;4976009;28;20052;-53
2022/09/01 10:17:33;;;;;;;2.85;1.90;;;29.70;72.30;;;;;;4974518;28;20109;-53
2022/09/01 10:20:08;;;;;;;4.68;2.10;;;29.30;74.60;;;;;;4975907;28;20054;-53
2022/09/01 10:22:36;;;;;;;5.93;2.15;;;29.70;72.80;;;;;;4977348;28;20974;-53
2022/09/01 10:25:03;;;;;;;6.05;2.50;;;29.80;71.20;;;;;;4972605;28;20030;-53
2022/09/01 10:27:36;;;;;;;6.55;2.50;;;29.40;71.90;;;;;;4970984;28;20022;-53
2022/09/01 10:30:19;;;;;;;6.55;2.42;;;29.80;71.40;;;;;;4969045;28;20125;-52
2022/09/01 10:32:53;;;;;;;4.05;2.10;;;30.50;70.50;;;;;;4974276;28;20037;-53
2022/09/01 10:35:27;;;;;;;8.95;2.53;;;30.80;69.50;;;;;;4974543;28;20788;-54
2022/09/01 10:37:53;;;;;;;9.55;2.30;;;29.70;71.00;;;;;;4974181;28;20034;-53
2022/09/01 10:40:27;;;;;;;11.02;2.03;;;29.60;72.80;;;;;;4974821;28;20066;-53
2022/09/01 10:42:56;;;;;;;8.75;1.83;;;29.50;71.50;;;;;;4975488;28;20129;-53
2022/09/01 10:45:37;;;;;;;6.72;2.20;;;28.80;73.80;;;;;;4974008;28;20077;-53
2022/09/01 10:48:22;;;;;;;5.50;2.10;;;29.80;72.30;;;;;;4971833;28;20034;-53
2022/09/01 10:50:54;;;;;;;6.53;1.80;;;30.70;69.40;;;;;;4969978;28;20030;-54
2022/09/01 10:53:32;;;;;;;4.70;1.60;;;30.80;67.30;;;;;;4975168;28;20447;-54
2022/09/01 10:56:37;;;;;;;2.40;1.58;;;30.20;67.50;;;;;;4977918;28;20049;-52
2022/09/01 10:59:22;;;;;;;4.75;1.60;;;29.60;67.30;;;;;;4972967;28;21059;-53
2022/09/01 11:01:48;;;;;;;4.45;1.90;;;29.60;67.00;;;;;;4976780;28;20031;-53
2022/09/01 11:04:16;;;;;;;4.13;1.60;;;30.20;66.20;;;;;;4978020;28;20045;-53
2022/09/01 11:06:52;;;;;;;6.75;1.58;;;30.60;65.10;;;;;;4983457;28;20038;-53
2022/09/01 11:09:35;;;;;;;4.68;1.27;;;30.60;64.60;;;;;;4972183;28;20305;-53
2022/09/01 11:12:35;;;;;;;5.22;1.63;;;31.00;63.00;;;;;;4970035;28;20493;-53
2022/09/01 11:15:17;;;;;;;5.30;1.60;;;31.20;62.80;;;;;;4972330;28;20045;-53
2022/09/01 11:17:52;;;;;;;5.32;1.50;;;31.30;63.40;;;;;;4976453;28;20026;-54
2022/09/01 11:20:37;;;;;;;4.82;1.70;;;32.00;61.60;;;;;;4975073;28;20039;-53
2022/09/01 11:23:12;;;;;;;4.68;1.50;;;32.90;59.90;;;;;;4973207;28;20116;-53
2022/09/01 11:26:01;;;;;;;2.85;1.27;;;33.30;59.60;;;;;;4972863;28;20036;-54
2022/09/01 11:28:30;;;;;;;3.92;1.48;;;33.40;58.20;;;;;;4964899;28;20054;-53
2022/09/01 11:31:00;;;;;;;6.85;1.50;;;32.20;58.50;;;;;;4972270;28;20039;-53
2022/09/01 11:33:38;;;;;;;5.20;1.60;;;31.90;59.20;;;;;;4970954;28;20042;-53
2022/09/01 11:36:13;;;;;;;2.38;1.52;;;31.50;59.60;;;;;;4968142;28;20026;-53
2022/09/01 11:38:50;;;;;;;3.30;1.40;;;31.30;59.40;;;;;;4970733;28;20121;-53
2022/09/01 11:41:24;;;;;;;3.80;1.60;;;30.40;60.70;;;;;;4973139;28;20443;-54
2022/09/01 11:43:56;;;;;;;3.80;1.77;;;30.40;60.60;;;;;;4965874;28;20744;-53
2022/09/01 11:46:42;;;;;;;2.50;1.30;;;30.10;59.80;;;;;;4965719;28;20149;-54
2022/09/01 11:49:25;;;;;;;1.33;1.20;;;30.40;61.10;;;;;;4971081;28;20026;-54
2022/09/01 11:51:51;;;;;;;6.65;1.63;;;30.30;60.90;;;;;;4967747;28;20081;-53
2022/09/01 11:54:16;;;;;;;3.17;1.15;;;30.70;59.40;;;;;;4970543;28;20117;-53
2022/09/01 11:56:42;;;;;;;2.60;1.40;;;30.40;59.70;;;;;;4965115;28;20062;-53
2022/09/01 11:59:08;;;;;;;6.15;1.60;;;30.20;60.50;;;;;;4964489;28;20649;-54
2022/09/01 12:01:38;;;;;;;1.52;1.38;;;31.00;59.10;;;;;;4969466;28;20050;-53
2022/09/01 12:04:21;;;;;;;3.83;1.60;;;31.00;58.60;;;;;;4971488;28;20578;-53
2022/09/01 12:07:01;;;;;;;5.22;1.75;;;31.00;58.30;;;;;;4975833;28;20488;-53
2022/09/01 12:09:42;;;;;;;6.07;1.85;;;31.00;58.80;;;;;;4971784;28;20454;-53
2022/09/01 12:12:30;;;;;;;8.25;1.85;;;30.70;58.70;;;;;;4976704;28;20539;-53
2022/09/01 12:15:03;;;;;;;8.40;1.52;;;30.80;59.20;;;;;;4967798;28;20455;-52
2022/09/01 12:17:28;;;;;;;4.18;1.40;;;30.80;58.60;;;;;;4970882;28;20475;-54
2022/09/01 12:19:54;;;;;;;3.30;1.30;;;30.80;58.80;;;;;;4971536;28;20192;-54
2022/09/01 12:22:52;;;;;;;6.60;1.55;;;31.20;58.10;;;;;;4965702;28;20689;-52
2022/09/01 12:25:31;;;;;;;3.00;1.65;;;31.60;57.80;;;;;;4964640;28;20612;-53
2022/09/01 12:28:00;;;;;;;5.75;1.50;;;31.30;57.70;;;;;;4968766;28;20030;-54
2022/09/01 12:30:38;;;;;;;7.07;1.80;;;31.40;57.70;;;;;;4964410;28;20612;-54
2022/09/01 12:33:08;;;;;;;4.60;1.40;;;31.60;57.70;;;;;;4968330;28;20041;-52
2022/09/01 12:35:34;;;;;;;2.75;1.50;;;30.80;58.60;;;;;;4962736;28;20613;-53
2022/09/01 12:38:18;;;;;;;6.35;1.67;;;31.30;57.80;;;;;;4965397;28;20030;-53
2022/09/01 12:40:49;;;;;;;8.77;1.85;;;32.00;57.70;;;;;;4968790;28;20034;-53
2022/09/01 12:43:37;;;;;;;2.72;1.42;;;32.00;56.80;;;;;;4967834;28;20103;-54
2022/09/01 12:46:05;;;;;;;3.85;1.73;;;32.20;56.80;;;;;;4974750;28;20041;-53
2022/09/01 12:48:39;;;;;;;5.47;1.40;;;32.50;56.30;;;;;;4970766;28;20077;-54
2022/09/01 12:51:22;;;;;;;5.57;1.48;;;32.60;55.20;;;;;;4976272;28;20037;-53
2022/09/01 12:53:54;;;;;;;8.00;3.55;;;32.40;55.50;;;;;;4973047;28;20105;-52
2022/09/01 12:56:29;;;;;;;4.63;1.45;;;31.90;55.90;;;;;;4972560;28;20486;-53
2022/09/01 12:59:14;;;;;;;3.92;1.55;;;31.70;56.40;;;;;;4968853;28;20079;-52
2022/09/01 13:01:40;;;;;;;6.43;1.38;;;31.90;56.60;;;;;;4971846;28;20129;-52
2022/09/01 13:04:10;;;;;;;2.72;1.60;;;32.10;55.70;;;;;;4973922;28;20033;-52
2022/09/01 13:06:36;;;;;;;9.30;2.08;;;32.10;55.40;;;;;;4969297;28;20069;-53
2022/09/01 13:09:02;;;;;;;15.35;2.25;;;32.10;55.50;;;;;;4969087;28;20118;-53
2022/09/01 13:11:28;;;;;;;3.22;1.50;;;32.50;55.00;;;;;;4967510;28;20211;-53